createdAt,value
2023-01-19T00:01:09.473Z,94148.55
2023-01-19T00:03:37.550Z,94145.83
2023-01-19T00:06:07.220Z,94140.48
2023-01-19T00:08:35.985Z,94134.80
2023-01-19T00:11:05.241Z,94135.31
2023-01-19T00:13:33.526Z,94138.35
2023-01-19T00:16:01.990Z,94134.36
2023-01-19T00:18:30.449Z,94141.92
2023-01-19T00:20:58.496Z,94141.89
2023-01-19T00:23:26.732Z,94132.83
2023-01-19T00:25:54.850Z,94128.70
2023-01-19T00:28:22.875Z,94138.66
2023-01-19T00:30:52.552Z,94142.20
2023-01-19T00:33:20.739Z,94143.23
2023-01-19T00:35:53.426Z,94145.20
2023-01-19T00:38:21.734Z,94139.13
2023-01-19T00:40:50.026Z,94146.08
2023-01-19T00:43:18.112Z,94154.59
2023-01-19T00:45:46.500Z,94158.07
2023-01-19T00:48:14.818Z,94159.01
2023-01-19T00:50:43.003Z,94159.23
2023-01-19T00:53:11.064Z,94162.81
2023-01-19T00:55:39.166Z,94156.78
2023-01-19T00:58:07.520Z,94157.71
2023-01-19T01:00:35.681Z,94153.98
2023-01-19T01:03:04.438Z,94158.05
2023-01-19T01:05:33.445Z,94163.98
2023-01-19T01:08:01.625Z,94160.66
2023-01-19T01:10:29.863Z,94166.09
2023-01-19T01:12:59.270Z,94166.11
2023-01-19T01:15:27.982Z,94166.27
2023-01-19T01:17:57.025Z,94160.71
2023-01-19T01:20:28.294Z,94162.05
2023-01-19T01:22:57.258Z,94166.19
2023-01-19T01:25:28.084Z,94160.25
2023-01-19T01:27:56.237Z,94156.52
2023-01-19T01:30:24.487Z,94142.75
2023-01-19T01:32:52.576Z,94124.88
2023-01-19T01:35:20.854Z,94110.04
2023-01-19T01:37:49.040Z,94114.77
2023-01-19T01:40:19.013Z,94124.06
2023-01-19T01:42:47.240Z,94141.92
2023-01-19T01:45:30.784Z,94140.80
2023-01-19T01:48:28.188Z,94140.05
2023-01-19T01:51:25.492Z,94138.28
2023-01-19T01:54:16.450Z,94128.75
2023-01-19T01:56:48.027Z,94126.88
2023-01-19T01:59:45.404Z,94120.50
2023-01-19T02:02:39.651Z,94103.76
2023-01-19T02:05:13.279Z,94103.65
2023-01-19T02:08:12.019Z,94108.67
2023-01-19T02:11:00.853Z,94102.77
2023-01-19T02:13:30.781Z,94097.34
2023-01-19T02:16:03.195Z,94091.24
2023-01-19T02:18:32.566Z,94090.65
2023-01-19T02:21:19.301Z,94077.67
2023-01-19T02:23:50.992Z,94067.14
2023-01-19T02:26:30.140Z,94069.92
2023-01-19T02:29:19.759Z,94058.61
2023-01-19T02:31:47.941Z,94041.05
2023-01-19T02:34:18.909Z,94028.63
2023-01-19T02:37:02.259Z,94033.45
2023-01-19T02:39:36.618Z,94034.70
2023-01-19T02:42:13.467Z,94032.08
2023-01-19T02:44:45.422Z,94027.42
2023-01-19T02:47:14.266Z,94034.60
2023-01-19T02:49:42.682Z,94038.44
2023-01-19T02:52:18.612Z,94043.13
2023-01-19T02:55:15.571Z,94038.60
2023-01-19T02:58:13.589Z,94030.15
2023-01-19T03:01:20.096Z,94038.88
2023-01-19T03:03:57.160Z,94036.67
2023-01-19T03:07:09.561Z,94022.70
2023-01-19T03:09:48.004Z,94031.42
2023-01-19T03:12:37.902Z,94041.21
2023-01-19T03:15:35.493Z,94051.36
2023-01-19T03:18:08.537Z,94034.86
2023-01-19T03:20:38.166Z,94023.60
2023-01-19T03:23:11.256Z,94007.45
2023-01-19T03:25:43.909Z,94021.89
2023-01-19T03:28:15.162Z,94033.55
2023-01-19T03:30:48.139Z,94034.98
2023-01-19T03:33:22.912Z,94027.61
2023-01-19T03:35:54.922Z,94038.71
2023-01-19T03:38:27.461Z,94045.12
2023-01-19T03:41:02.100Z,94052.58
2023-01-19T03:43:31.945Z,94055.80
2023-01-19T03:46:01.349Z,94054.70
2023-01-19T03:48:29.531Z,94048.70
2023-01-19T03:50:58.168Z,94028.81
2023-01-19T03:53:26.536Z,94029.26
2023-01-19T03:55:55.286Z,94033.42
2023-01-19T03:58:23.332Z,94025.75
2023-01-19T04:00:51.789Z,94022.94
2023-01-19T04:03:20.072Z,94024.00
2023-01-19T04:05:48.249Z,94025.48
2023-01-19T04:08:16.288Z,94009.50
2023-01-19T04:10:45.122Z,94001.57
2023-01-19T04:13:13.314Z,93994.91
2023-01-19T04:15:41.522Z,93993.55
2023-01-19T04:18:09.890Z,93987.05
2023-01-19T04:20:38.276Z,93981.00
2023-01-19T04:23:06.240Z,93971.85
2023-01-19T04:25:34.436Z,93966.55
2023-01-19T04:28:02.549Z,93977.31
2023-01-19T04:30:31.047Z,93973.10
2023-01-19T04:33:00.423Z,93969.73
2023-01-19T04:35:28.896Z,93966.15
2023-01-19T04:37:57.071Z,93955.13
2023-01-19T04:40:25.388Z,93955.93
2023-01-19T04:42:54.747Z,93951.52
2023-01-19T04:45:22.925Z,93944.22
2023-01-19T04:47:52.034Z,93945.41
2023-01-19T04:50:20.650Z,93940.20
2023-01-19T04:52:50.058Z,93943.98
2023-01-19T04:55:18.621Z,93947.45
2023-01-19T04:57:46.843Z,93959.73
2023-01-19T05:00:15.707Z,93967.34
2023-01-19T05:02:45.396Z,93976.23
2023-01-19T05:05:13.876Z,93984.13
2023-01-19T05:07:43.217Z,93991.72
2023-01-19T05:10:12.829Z,93995.56
2023-01-19T05:12:42.329Z,93991.65
2023-01-19T05:15:11.342Z,93994.95
2023-01-19T05:17:39.880Z,93990.08
2023-01-19T05:20:11.033Z,93993.13
2023-01-19T05:22:39.470Z,93994.84
2023-01-19T05:25:11.555Z,93993.04
2023-01-19T05:27:39.867Z,93995.70
2023-01-19T05:30:09.025Z,93994.63
2023-01-19T05:32:37.244Z,94004.35
2023-01-19T05:35:06.934Z,94009.98
2023-01-19T05:37:35.022Z,94007.80
2023-01-19T05:40:03.405Z,94007.07
2023-01-19T05:42:33.032Z,94008.41
2023-01-19T05:45:01.192Z,94004.25
2023-01-19T05:47:30.928Z,93994.56
2023-01-19T05:49:59.039Z,93982.21
2023-01-19T05:52:27.133Z,93982.33
2023-01-19T05:54:55.445Z,93986.85
2023-01-19T05:57:24.194Z,93987.49
2023-01-19T05:59:52.771Z,93987.95
2023-01-19T06:02:21.772Z,93980.96
2023-01-19T06:04:49.890Z,93979.67
2023-01-19T06:07:18.161Z,93987.48
2023-01-19T06:09:46.524Z,93988.42
2023-01-19T06:12:15.191Z,94006.81
2023-01-19T06:14:43.441Z,94031.45
2023-01-19T06:17:11.714Z,94025.96
2023-01-19T06:19:39.942Z,94017.33
2023-01-19T06:22:10.579Z,94015.38
2023-01-19T06:24:38.636Z,94013.44
2023-01-19T06:27:06.744Z,94008.15
2023-01-19T06:29:35.120Z,94007.92
2023-01-19T06:32:03.414Z,94005.88
2023-01-19T06:34:31.686Z,94008.83
2023-01-19T06:37:00.150Z,94010.23
2023-01-19T06:39:28.358Z,94017.08
2023-01-19T06:41:56.512Z,94021.91
2023-01-19T06:44:26.182Z,94021.02
2023-01-19T06:47:15.449Z,94020.58
2023-01-19T06:49:42.919Z,94022.41
2023-01-19T06:52:14.176Z,94028.22
2023-01-19T06:54:45.464Z,94038.64
2023-01-19T06:57:14.455Z,94056.69
2023-01-19T06:59:42.788Z,94060.74
2023-01-19T07:02:26.165Z,94065.58
2023-01-19T07:04:57.024Z,94067.19
2023-01-19T07:07:26.162Z,94056.30
2023-01-19T07:09:54.363Z,94045.73
2023-01-19T07:12:23.412Z,94029.95
2023-01-19T07:14:52.979Z,94045.25
2023-01-19T07:17:21.136Z,94046.64
2023-01-19T07:19:50.047Z,94042.85
2023-01-19T07:22:18.678Z,94050.70
2023-01-19T07:24:47.317Z,94040.80
2023-01-19T07:27:16.573Z,94039.75
2023-01-19T07:29:45.370Z,94034.89
2023-01-19T07:32:13.498Z,94047.60
2023-01-19T07:34:41.763Z,94045.77
2023-01-19T07:37:10.128Z,94043.10
2023-01-19T07:39:38.240Z,94029.05
2023-01-19T07:42:07.518Z,94009.65
2023-01-19T07:44:37.692Z,94019.28
2023-01-19T07:47:11.457Z,94039.10
2023-01-19T07:49:40.166Z,94050.94
2023-01-19T07:52:08.342Z,94056.34
2023-01-19T07:54:36.804Z,94041.10
2023-01-19T07:57:05.197Z,94044.10
2023-01-19T07:59:33.607Z,94057.13
2023-01-19T08:02:02.168Z,94072.09
2023-01-19T08:04:30.486Z,94093.73
2023-01-19T08:06:58.714Z,94097.64
2023-01-19T08:09:27.401Z,94096.50
2023-01-19T08:11:55.600Z,94080.66
2023-01-19T08:14:23.786Z,94065.73
2023-01-19T08:16:52.041Z,94066.09
2023-01-19T08:19:20.540Z,94065.93
2023-01-19T08:21:48.759Z,94076.83
2023-01-19T08:24:22.949Z,94074.73
2023-01-19T08:26:59.409Z,94078.56
2023-01-19T08:29:30.921Z,94073.88
2023-01-19T08:32:01.915Z,94076.98
2023-01-19T08:34:32.094Z,94085.28
2023-01-19T08:37:00.593Z,94092.34
2023-01-19T08:39:28.971Z,94092.49
2023-01-19T08:41:59.385Z,94085.58
2023-01-19T08:44:27.983Z,94088.63
2023-01-19T08:46:56.125Z,94096.22
2023-01-19T08:49:24.210Z,94094.55
2023-01-19T08:51:52.442Z,94096.19
2023-01-19T08:54:21.891Z,94103.02
2023-01-19T08:56:50.510Z,94103.93
2023-01-19T08:59:18.673Z,94111.05
2023-01-19T09:01:47.224Z,94115.42
2023-01-19T09:04:15.877Z,94124.45
2023-01-19T09:06:44.167Z,94121.21
2023-01-19T09:09:12.693Z,94133.99
2023-01-19T09:11:40.940Z,94136.98
2023-01-19T09:14:08.986Z,94131.61
2023-01-19T09:16:37.415Z,94119.61
2023-01-19T09:19:08.716Z,94116.27
2023-01-19T09:21:37.350Z,94118.61
2023-01-19T09:24:05.629Z,94124.36
2023-01-19T09:26:33.887Z,94125.09
2023-01-19T09:29:02.570Z,94130.61
2023-01-19T09:31:31.235Z,94131.48
2023-01-19T09:33:59.566Z,94143.31
2023-01-19T09:36:27.913Z,94139.75
2023-01-19T09:38:56.081Z,94136.28
2023-01-19T09:41:26.451Z,94128.91
2023-01-19T09:44:00.752Z,94129.84
2023-01-19T09:46:41.713Z,94137.90
2023-01-19T09:49:20.115Z,94129.88
2023-01-19T09:51:51.223Z,94124.48
2023-01-19T09:54:29.516Z,94125.11
2023-01-19T09:56:57.764Z,94130.39
2023-01-19T09:59:29.981Z,94134.26
2023-01-19T10:02:23.887Z,94136.81
2023-01-19T10:05:21.766Z,94139.02
2023-01-19T10:08:45.014Z,94137.73
2023-01-19T10:11:52.127Z,94122.42
2023-01-19T10:14:48.169Z,94120.16
2023-01-19T10:17:34.484Z,94127.83
2023-01-19T10:20:07.297Z,94125.15
2023-01-19T10:22:36.005Z,94116.98
2023-01-19T10:25:13.514Z,94121.63
2023-01-19T10:27:43.017Z,94118.12
2023-01-19T10:30:21.397Z,94115.17
2023-01-19T10:32:50.424Z,94115.58
2023-01-19T10:35:24.435Z,94109.70
2023-01-19T10:38:01.967Z,94117.73
2023-01-19T10:40:43.106Z,94123.59
2023-01-19T10:43:47.976Z,94117.33
2023-01-19T10:46:35.675Z,94116.24
2023-01-19T10:49:05.159Z,94113.70
2023-01-19T10:51:33.587Z,94101.25
2023-01-19T10:54:05.346Z,94098.20
2023-01-19T10:56:38.614Z,94100.19
2023-01-19T10:59:07.635Z,94103.42
2023-01-19T11:01:38.833Z,94106.00
2023-01-19T11:04:28.418Z,94101.70
2023-01-19T11:07:25.960Z,94102.21
2023-01-19T11:10:16.269Z,94099.79
2023-01-19T11:12:53.151Z,94088.52
2023-01-19T11:15:28.525Z,94092.19
2023-01-19T11:17:57.402Z,94097.33
2023-01-19T11:20:39.036Z,94098.48
2023-01-19T11:23:33.980Z,94088.09
2023-01-19T11:26:06.018Z,94093.49
2023-01-19T11:28:46.875Z,94104.71
2023-01-19T11:31:15.558Z,94106.38
2023-01-19T11:33:51.219Z,94099.10
2023-01-19T11:36:26.316Z,94092.89
2023-01-19T11:38:57.080Z,94095.19
2023-01-19T11:41:29.961Z,94093.34
2023-01-19T11:44:09.679Z,94093.06
2023-01-19T11:46:41.882Z,94092.20
2023-01-19T11:49:22.851Z,94096.80
2023-01-19T11:52:26.908Z,94096.70
2023-01-19T11:55:23.828Z,94102.64
2023-01-19T11:57:54.755Z,94100.73
2023-01-19T12:00:45.580Z,94104.23
2023-01-19T12:03:34.887Z,94087.82
2023-01-19T12:06:20.434Z,94091.01
2023-01-19T12:08:54.211Z,94099.53
2023-01-19T12:11:31.812Z,94097.52
2023-01-19T12:14:00.493Z,94103.85
2023-01-19T12:16:34.804Z,94113.40
2023-01-19T12:19:11.796Z,94112.33
2023-01-19T12:21:40.592Z,94109.75
2023-01-19T12:24:16.437Z,94117.98
2023-01-19T12:26:48.563Z,94111.36
2023-01-19T12:29:22.795Z,94102.90
2023-01-19T12:32:16.896Z,94107.26
2023-01-19T12:34:50.122Z,94111.11
2023-01-19T12:37:30.815Z,94114.23
2023-01-19T12:40:05.701Z,94120.65
2023-01-19T12:42:34.774Z,94118.40
2023-01-19T12:45:08.805Z,94120.30
2023-01-19T12:47:38.141Z,94123.35
2023-01-19T12:50:16.555Z,94109.06
2023-01-19T12:52:51.842Z,94104.84
2023-01-19T12:55:24.835Z,94100.67
2023-01-19T12:57:58.700Z,94101.45
2023-01-19T13:00:34.365Z,94099.02
2023-01-19T13:03:19.234Z,94103.34
2023-01-19T13:05:56.149Z,94109.89
2023-01-19T13:08:58.427Z,94121.27
2023-01-19T13:11:29.347Z,94131.49
2023-01-19T13:13:59.554Z,94137.23
2023-01-19T13:16:28.865Z,94138.77
2023-01-19T13:19:06.589Z,94126.13
2023-01-19T13:21:42.937Z,94138.15
2023-01-19T13:24:17.692Z,94134.73
2023-01-19T13:26:48.844Z,94140.39
2023-01-19T13:29:38.144Z,94141.85
2023-01-19T13:32:19.552Z,94142.26
2023-01-19T13:35:02.254Z,94145.98
2023-01-19T13:37:43.853Z,94151.36
2023-01-19T13:40:38.853Z,94153.61
2023-01-19T13:43:33.450Z,94156.73
2023-01-19T13:46:02.265Z,94152.96
2023-01-19T13:48:32.088Z,94159.55
2023-01-19T13:51:07.092Z,94158.10
2023-01-19T13:53:36.797Z,94153.14
2023-01-19T13:56:22.855Z,94159.88
2023-01-19T13:59:11.967Z,94176.60
2023-01-19T14:01:42.936Z,94185.59
2023-01-19T14:04:26.012Z,94184.70
2023-01-19T14:06:57.887Z,94191.08
2023-01-19T14:09:26.086Z,94197.36
2023-01-19T14:12:14.808Z,94202.55
2023-01-19T14:14:46.976Z,94197.05
2023-01-19T14:17:22.680Z,94205.36
2023-01-19T14:19:53.230Z,94209.46
2023-01-19T14:22:21.974Z,94202.56
2023-01-19T14:24:50.299Z,94202.45
2023-01-19T14:27:24.013Z,94195.83
2023-01-19T14:30:20.697Z,94202.10
2023-01-19T14:32:49.029Z,94206.33
2023-01-19T14:35:25.171Z,94217.34
2023-01-19T14:37:53.663Z,94221.72
2023-01-19T14:40:24.711Z,94224.71
2023-01-19T14:43:06.705Z,94233.81
2023-01-19T14:45:41.473Z,94250.84
2023-01-19T14:48:22.880Z,94252.83
2023-01-19T14:51:03.114Z,94246.75
2023-01-19T14:53:37.544Z,94252.11
2023-01-19T14:56:07.621Z,94250.89
2023-01-19T14:58:37.395Z,94258.02
2023-01-19T15:01:07.037Z,94247.73
2023-01-19T15:03:44.298Z,94249.36
2023-01-19T15:06:21.473Z,94255.27
2023-01-19T15:08:50.543Z,94255.17
2023-01-19T15:11:28.149Z,94256.90
2023-01-19T15:13:56.578Z,94255.30
2023-01-19T15:16:26.075Z,94251.88
2023-01-19T15:18:54.617Z,94254.59
2023-01-19T15:21:26.790Z,94251.19
2023-01-19T15:23:55.815Z,94262.67
2023-01-19T15:26:27.017Z,94269.30
2023-01-19T15:28:56.935Z,94274.41
2023-01-19T15:31:26.403Z,94270.79
2023-01-19T15:33:54.893Z,94271.69
2023-01-19T15:36:24.525Z,94274.61
2023-01-19T15:38:52.654Z,94275.66
2023-01-19T15:41:26.775Z,94278.66
2023-01-19T15:43:54.907Z,94283.92
2023-01-19T15:46:25.378Z,94280.40
2023-01-19T15:48:54.484Z,94291.02
2023-01-19T15:51:27.581Z,94291.61
2023-01-19T15:53:58.061Z,94294.77
2023-01-19T15:56:29.122Z,94298.59
2023-01-19T15:58:58.867Z,94312.65
2023-01-19T16:01:32.396Z,94312.11
2023-01-19T16:04:05.072Z,94311.87
2023-01-19T16:06:34.040Z,94317.27
2023-01-19T16:09:03.934Z,94323.31
2023-01-19T16:11:34.373Z,94307.29
2023-01-19T16:14:02.852Z,94316.33
2023-01-19T16:16:31.233Z,94317.23
2023-01-19T16:18:59.462Z,94314.87
2023-01-19T16:21:27.811Z,94316.59
2023-01-19T16:23:55.934Z,94329.47
2023-01-19T16:26:29.106Z,94335.76
2023-01-19T16:29:00.034Z,94338.52
2023-01-19T16:31:29.664Z,94346.19
2023-01-19T16:33:57.784Z,94353.38
2023-01-19T16:36:32.578Z,94346.67
2023-01-19T16:39:03.856Z,94349.11
2023-01-19T16:41:33.734Z,94359.29
2023-01-19T16:44:02.685Z,94352.04
2023-01-19T16:46:36.729Z,94365.23
2023-01-19T16:49:11.628Z,94367.47
2023-01-19T16:51:39.818Z,94372.25
2023-01-19T16:54:08.335Z,94366.56
2023-01-19T16:56:36.369Z,94373.52
2023-01-19T16:59:05.617Z,94382.69
2023-01-19T17:01:34.119Z,94386.45
2023-01-19T17:04:02.373Z,94390.34
2023-01-19T17:06:30.827Z,94397.22
2023-01-19T17:09:01.184Z,94403.42
2023-01-19T17:11:32.634Z,94404.63
2023-01-19T17:14:06.554Z,94410.50
2023-01-19T17:16:36.076Z,94408.80
2023-01-19T17:19:06.457Z,94407.27
2023-01-19T17:21:35.064Z,94411.55
2023-01-19T17:24:03.256Z,94410.02
2023-01-19T17:26:32.159Z,94409.65
2023-01-19T17:29:09.149Z,94412.98
2023-01-19T17:31:37.856Z,94412.78
2023-01-19T17:34:06.369Z,94416.20
2023-01-19T17:36:34.651Z,94427.02
2023-01-19T17:39:07.575Z,94423.32
2023-01-19T17:41:36.265Z,94421.81
2023-01-19T17:44:05.930Z,94428.21
2023-01-19T17:46:38.849Z,94423.39
2023-01-19T17:49:08.242Z,94418.20
2023-01-19T17:51:37.192Z,94416.46
2023-01-19T17:54:05.899Z,94425.20
2023-01-19T17:56:38.957Z,94416.20
2023-01-19T17:59:08.353Z,94416.80
2023-01-19T18:01:40.196Z,94425.27
2023-01-19T18:04:12.006Z,94425.20
2023-01-19T18:06:40.310Z,94430.12
2023-01-19T18:09:08.567Z,94428.67
2023-01-19T18:11:36.897Z,94442.52
2023-01-19T18:14:06.852Z,94435.31
2023-01-19T18:16:36.037Z,94431.03
2023-01-19T18:19:04.362Z,94427.08
2023-01-19T18:21:32.509Z,94425.02
2023-01-19T18:24:05.280Z,94428.27
2023-01-19T18:26:35.075Z,94429.59
2023-01-19T18:29:03.286Z,94432.88
2023-01-19T18:31:31.555Z,94422.20
2023-01-19T18:34:00.048Z,94429.54
2023-01-19T18:36:28.625Z,94429.36
2023-01-19T18:38:57.144Z,94429.22
2023-01-19T18:41:26.869Z,94439.43
2023-01-19T18:43:59.904Z,94437.90
2023-01-19T18:46:28.439Z,94442.23
2023-01-19T18:48:57.597Z,94444.16
2023-01-19T18:51:29.272Z,94448.52
2023-01-19T18:53:59.377Z,94456.85
2023-01-19T18:56:29.425Z,94457.04
2023-01-19T18:58:57.662Z,94471.54
2023-01-19T19:01:33.110Z,94473.45
2023-01-19T19:04:03.595Z,94479.38
2023-01-19T19:06:31.813Z,94489.25
2023-01-19T19:09:00.275Z,94495.63
2023-01-19T19:11:30.075Z,94494.70
2023-01-19T19:14:00.849Z,94497.14
2023-01-19T19:16:30.351Z,94513.33
2023-01-19T19:18:59.399Z,94521.27
2023-01-19T19:21:27.765Z,94522.71
2023-01-19T19:23:58.147Z,94530.98
2023-01-19T19:26:28.401Z,94539.05
2023-01-19T19:28:56.743Z,94539.04
2023-01-19T19:31:27.703Z,94540.89
2023-01-19T19:33:58.087Z,94541.52
2023-01-19T19:36:28.158Z,94538.83
2023-01-19T19:38:56.319Z,94539.95
2023-01-19T19:41:29.714Z,94538.94
2023-01-19T19:43:58.627Z,94539.17
2023-01-19T19:46:27.551Z,94557.80
2023-01-19T19:48:55.622Z,94542.87
2023-01-19T19:51:27.286Z,94533.52
2023-01-19T19:53:58.878Z,94537.77
2023-01-19T19:56:30.060Z,94538.83
2023-01-19T19:58:59.828Z,94529.13
2023-01-19T20:01:33.783Z,94524.16
2023-01-19T20:04:12.358Z,94535.23
2023-01-19T20:06:44.778Z,94542.27
2023-01-19T20:09:16.380Z,94539.86
2023-01-19T20:11:46.780Z,94538.77
2023-01-19T20:14:16.407Z,94546.58
2023-01-19T20:16:45.888Z,94554.20
2023-01-19T20:19:14.311Z,94567.19
2023-01-19T20:21:43.376Z,94569.17
2023-01-19T20:24:19.223Z,94574.15
2023-01-19T20:26:50.642Z,94578.27
2023-01-19T20:29:20.309Z,94573.27
2023-01-19T20:31:52.837Z,94568.46
2023-01-19T20:34:24.324Z,94580.74
2023-01-19T20:36:54.114Z,94586.27
2023-01-19T20:39:24.457Z,94594.55
2023-01-19T20:41:53.059Z,94597.58
2023-01-19T20:44:24.588Z,94589.98
2023-01-19T20:46:54.716Z,94581.50
2023-01-19T20:49:23.299Z,94586.92
2023-01-19T20:51:52.327Z,94585.89
2023-01-19T20:54:24.665Z,94586.27
2023-01-19T20:56:53.570Z,94599.36
2023-01-19T20:59:22.397Z,94596.27
2023-01-19T21:01:50.824Z,94607.77
2023-01-19T21:04:19.603Z,94612.84
2023-01-19T21:06:48.510Z,94623.83
2023-01-19T21:09:18.732Z,94620.35
2023-01-19T21:11:47.301Z,94625.45
2023-01-19T21:14:15.627Z,94638.52
2023-01-19T21:16:44.093Z,94654.20
2023-01-19T21:19:12.469Z,94649.89
2023-01-19T21:21:40.593Z,94639.51
2023-01-19T21:24:10.406Z,94644.23
2023-01-19T21:26:38.580Z,94660.25
2023-01-19T21:29:07.005Z,94672.09
2023-01-19T21:31:35.304Z,94679.73
2023-01-19T21:34:03.444Z,94679.53
2023-01-19T21:36:32.851Z,94675.69
2023-01-19T21:39:01.265Z,94673.77
2023-01-19T21:41:30.353Z,94676.55
2023-01-19T21:44:00.602Z,94681.25
2023-01-19T21:46:30.561Z,94683.69
2023-01-19T21:49:04.963Z,94688.92
2023-01-19T21:51:35.857Z,94681.10
2023-01-19T21:54:06.447Z,94685.80
2023-01-19T21:56:35.665Z,94691.02
2023-01-19T21:59:05.402Z,94697.47
2023-01-19T22:01:34.921Z,94704.59
2023-01-19T22:04:03.300Z,94706.52
2023-01-19T22:06:31.691Z,94706.67
2023-01-19T22:09:00.890Z,94709.63
2023-01-19T22:11:30.259Z,94718.64
2023-01-19T22:14:02.486Z,94717.06
2023-01-19T22:16:31.551Z,94712.71
2023-01-19T22:19:02.500Z,94702.09
2023-01-19T22:21:35.969Z,94698.60
2023-01-19T22:24:05.486Z,94695.48
2023-01-19T22:26:35.208Z,94689.05
2023-01-19T22:29:05.589Z,94687.65
2023-01-19T22:31:34.000Z,94684.50
2023-01-19T22:34:02.284Z,94686.71
2023-01-19T22:36:34.147Z,94684.98
2023-01-19T22:39:09.600Z,94685.35
2023-01-19T22:41:44.077Z,94686.39
2023-01-19T22:44:18.301Z,94692.44
2023-01-19T22:46:47.640Z,94693.05
2023-01-19T22:49:18.571Z,94686.23
2023-01-19T22:51:47.997Z,94690.75
2023-01-19T22:54:16.163Z,94695.27
2023-01-19T22:56:45.961Z,94704.41
2023-01-19T22:59:14.141Z,94705.39
2023-01-19T23:01:43.674Z,94703.94
2023-01-19T23:04:15.196Z,94708.13
2023-01-19T23:06:46.976Z,94707.84
2023-01-19T23:09:15.487Z,94707.40
2023-01-19T23:11:50.299Z,94703.10
2023-01-19T23:14:21.389Z,94701.05
2023-01-19T23:16:49.515Z,94697.60
2023-01-19T23:19:18.768Z,94693.45
2023-01-19T23:21:51.125Z,94698.86
2023-01-19T23:24:19.799Z,94703.04
2023-01-19T23:26:49.782Z,94708.60
2023-01-19T23:29:18.229Z,94714.34
2023-01-19T23:31:48.953Z,94712.11
2023-01-19T23:34:17.557Z,94713.69
2023-01-19T23:36:45.777Z,94710.73
2023-01-19T23:39:16.871Z,94707.25
2023-01-19T23:41:45.448Z,94703.41
2023-01-19T23:44:14.524Z,94703.42
2023-01-19T23:46:44.055Z,94704.82
2023-01-19T23:49:13.151Z,94715.95
2023-01-19T23:51:41.796Z,94707.42
2023-01-19T23:54:12.294Z,94692.77
2023-01-19T23:56:42.722Z,94687.52
2023-01-19T23:59:13.618Z,94678.10
